Podhale (bahama Islands) — C6TX9 — position and weather

sailwx.info

Track history (hours):
 
Tides and Currents Weather Stations Pressure Air Temp Water Temp Dewpoint Dewpoint Depression Visibility Wind Speed Wind Dir Waves Ship Positions

Podhale (bahama Islands)

Last reported at 2014-Jul-23 21:05 UTC. Time now 2014-Jul-23 22:11 UTC.
Position N 38°40' W 009°25'.

Length 190 m; beam 24 m.

Type: Cargo ship. MMSI: 311831000.

Date/timePositionNaut miles runAvg speedWind from/ knotsBaromVisibWave heightAir tempDewpointWater temp
2014-Jul-23 21:05N 38°40' W 009°25'0 0.1
2014-Jul-23 20:29N 38°40' W 009°25'0 0.0
2014-Jul-23 17:05N 38°40' W 009°25'0 0.0
2014-Jul-23 16:26N 38°40' W 009°25'0 0.0
2014-Jul-23 15:29N 38°40' W 009°25'0 0.0
2014-Jul-23 14:32N 38°40' W 009°25'0 0.0
2014-Jul-23 13:26N 38°40' W 009°25'0 0.0
2014-Jul-23 03:17N 38°40' W 009°25'0 0.1
2014-Jul-23 01:17N 38°41' W 009°25'0 0.0
2014-Jul-22 23:26N 38°41' W 009°25'0 0.0
2014-Jul-22 22:29N 38°41' W 009°25'0 0.0
2014-Jul-22 21:14N 38°41' W 009°25'0 0.2
2014-Jul-22 20:29N 38°41' W 009°25'0 0.1
2014-Jul-22 19:32N 38°41' W 009°25'0 0.0
2014-Jul-22 18:26N 38°40' W 009°25'0 0.0
2014-Jul-22 17:32N 38°40' W 009°25'0 0.0
2014-Jul-22 16:32N 38°40' W 009°25'0 0.2
2014-Jul-22 15:33N 38°40' W 009°25'7 6.6
2014-Jul-22 14:33N 38°34' W 009°27'1111.1
2014-Jul-22 13:33N 38°23' W 009°28'1111.4
2014-Jul-22 12:33N 38°12' W 009°28'1111.1
2014-Jul-22 11:33N 38°01' W 009°28'1110.9
2014-Jul-22 10:33N 37°50' W 009°26'1111.1
2014-Jul-22 09:33N 37°39' W 009°26'1111.3
2014-Jul-22 08:33N 37°28' W 009°24'1111.0
2014-Jul-22 07:31N 37°16' W 009°23'1010.7
2014-Jul-22 06:33N 37°06' W 009°22'1110.5
2014-Jul-22 05:33N 36°55' W 009°20'1010.1
2014-Jul-22 04:33N 36°47' W 009°12'1010.4
2014-Jul-22 03:33N 36°43' W 009°01'1110.8
2014-Jul-22 02:33N 36°39' W 008°48'2210.8
2014-Jul-22 00:33N 36°33' W 008°22'1111.1
2014-Jul-21 23:33N 36°29' W 008°09'1111.1
2014-Jul-21 22:33N 36°25' W 007°56'1111.1
2014-Jul-21 21:33N 36°22' W 007°43'1110.8
2014-Jul-21 20:32N 36°18' W 007°30'510.6
2014-Jul-21 20:02N 36°17' W 007°24'398 9.8
2014-Jul-20 03:28N 36°53' E 000°50'8 8.4
2014-Jul-20 02:32N 36°55' E 000°60'18 8.6
2014-Jul-20 00:28N 36°57' E 001°22'12 9.7
2014-Jul-19 23:14N 36°59' E 001°36'1110.0
2014-Jul-19 22:07N 37°01' E 001°50'4810.5
2014-Jul-19 17:32N 37°10' E 002°50'1310.6
2014-Jul-19 16:17N 37°12' E 003°06'1210.9
2014-Jul-19 15:09N 37°14' E 003°21'711.5
2014-Jul-19 14:33N 37°16' E 003°30'1111.4
2014-Jul-19 13:33N 37°18' E 003°44'2511.3
2014-Jul-19 11:20N 37°21' E 004°15'2111.4
2014-Jul-19 09:32N 37°23' E 004°41'4911.3
2014-Jul-19 05:14N 37°28' E 005°42'2011.0
2014-Jul-19 03:23N 37°30' E 006°07'1311.3
2014-Jul-19 02:14N 37°31' E 006°24'2212.0
2014-Jul-19 00:23N 37°33' E 006°52'  
2014-Jul-15 22:23N 36°57' E 023°26'3211.0
2014-Jul-15 19:27N 37°28' E 023°40'1010.9
2014-Jul-15 18:33N 37°37' E 023°42'1111.2
2014-Jul-15 17:33N 37°48' E 023°37'6 6.0
2014-Jul-15 16:33N 37°52' E 023°32'0 0.0
2014-Jul-15 15:33N 37°52' E 023°32'0 0.1
2014-Jul-15 14:33N 37°52' E 023°32'0 0.0
2014-Jul-15 13:33N 37°52' E 023°32'0 0.1
2014-Jul-15 12:33N 37°52' E 023°32'0 0.0
2014-Jul-15 11:33N 37°52' E 023°32'0 0.0
2014-Jul-15 10:34N 37°52' E 023°32'0 0.0
2014-Jul-15 09:34N 37°52' E 023°32'0 0.2
2014-Jul-15 08:34N 37°52' E 023°32'5 5.2
2014-Jul-15 07:34N 37°51' E 023°39'8 8.1
2014-Jul-15 06:34N 37°44' E 023°43'9 9.0
2014-Jul-15 05:33N 37°38' E 023°52'8 7.6
2014-Jul-15 04:28N 37°37' E 024°03'2010.6
2014-Jul-15 02:33N 37°48' E 024°24'1110.5
2014-Jul-15 01:33N 37°55' E 024°34'6011.2
2014-Jul-14 20:08N 38°49' E 025°08'711.7
2014-Jul-14 19:33N 38°55' E 025°12'2811.3
2014-Jul-14 17:07N 39°20' E 025°28'1710.9
2014-Jul-14 15:33N 39°35' E 025°37'1311.2
2014-Jul-14 14:21N 39°48' E 025°44'  
Track history (hours):
 
Tides and Currents Weather Stations Pressure Air Temp Water Temp Dewpoint Dewpoint Depression Visibility Wind Speed Wind Dir Waves Ship Positions

Podhale (bahama Islands)

Last reported at 2014-Jul-23 21:05 UTC. Time now 2014-Jul-23 22:11 UTC.
Position N 38°40' W 009°25'.

Length 190 m; beam 24 m.

Type: Cargo ship. MMSI: 311831000.

Date/timePositionNaut miles runAvg speedWind from/ knotsBaromVisibWave heightAir tempDewpointWater temp
2014-Jul-23 21:05N 38°40' W 009°25'0 0.1
2014-Jul-23 20:29N 38°40' W 009°25'0 0.0
2014-Jul-23 17:05N 38°40' W 009°25'0 0.0
2014-Jul-23 16:26N 38°40' W 009°25'0 0.0
2014-Jul-23 15:29N 38°40' W 009°25'0 0.0
2014-Jul-23 14:32N 38°40' W 009°25'0 0.0
2014-Jul-23 13:26N 38°40' W 009°25'0 0.0
2014-Jul-23 03:17N 38°40' W 009°25'0 0.1
2014-Jul-23 01:17N 38°41' W 009°25'0 0.0
2014-Jul-22 23:26N 38°41' W 009°25'0 0.0
2014-Jul-22 22:29N 38°41' W 009°25'0 0.0
2014-Jul-22 21:14N 38°41' W 009°25'0 0.2
2014-Jul-22 20:29N 38°41' W 009°25'0 0.1
2014-Jul-22 19:32N 38°41' W 009°25'0 0.0
2014-Jul-22 18:26N 38°40' W 009°25'0 0.0
2014-Jul-22 17:32N 38°40' W 009°25'0 0.0
2014-Jul-22 16:32N 38°40' W 009°25'0 0.2
2014-Jul-22 15:33N 38°40' W 009°25'7 6.6
2014-Jul-22 14:33N 38°34' W 009°27'1111.1
2014-Jul-22 13:33N 38°23' W 009°28'1111.4
2014-Jul-22 12:33N 38°12' W 009°28'1111.1
2014-Jul-22 11:33N 38°01' W 009°28'1110.9
2014-Jul-22 10:33N 37°50' W 009°26'1111.1
2014-Jul-22 09:33N 37°39' W 009°26'1111.3
2014-Jul-22 08:33N 37°28' W 009°24'1111.0
2014-Jul-22 07:31N 37°16' W 009°23'1010.7
2014-Jul-22 06:33N 37°06' W 009°22'1110.5
2014-Jul-22 05:33N 36°55' W 009°20'1010.1
2014-Jul-22 04:33N 36°47' W 009°12'1010.4
2014-Jul-22 03:33N 36°43' W 009°01'1110.8
2014-Jul-22 02:33N 36°39' W 008°48'2210.8
2014-Jul-22 00:33N 36°33' W 008°22'1111.1
2014-Jul-21 23:33N 36°29' W 008°09'1111.1
2014-Jul-21 22:33N 36°25' W 007°56'1111.1
2014-Jul-21 21:33N 36°22' W 007°43'1110.8
2014-Jul-21 20:32N 36°18' W 007°30'510.6
2014-Jul-21 20:02N 36°17' W 007°24'398 9.8
2014-Jul-20 03:28N 36°53' E 000°50'8 8.4
2014-Jul-20 02:32N 36°55' E 000°60'18 8.6
2014-Jul-20 00:28N 36°57' E 001°22'12 9.7
2014-Jul-19 23:14N 36°59' E 001°36'1110.0
2014-Jul-19 22:07N 37°01' E 001°50'4810.5
2014-Jul-19 17:32N 37°10' E 002°50'1310.6
2014-Jul-19 16:17N 37°12' E 003°06'1210.9
2014-Jul-19 15:09N 37°14' E 003°21'711.5
2014-Jul-19 14:33N 37°16' E 003°30'1111.4
2014-Jul-19 13:33N 37°18' E 003°44'2511.3
2014-Jul-19 11:20N 37°21' E 004°15'2111.4
2014-Jul-19 09:32N 37°23' E 004°41'4911.3
2014-Jul-19 05:14N 37°28' E 005°42'2011.0
2014-Jul-19 03:23N 37°30' E 006°07'1311.3
2014-Jul-19 02:14N 37°31' E 006°24'2212.0
2014-Jul-19 00:23N 37°33' E 006°52'  
2014-Jul-15 22:23N 36°57' E 023°26'3211.0
2014-Jul-15 19:27N 37°28' E 023°40'1010.9
2014-Jul-15 18:33N 37°37' E 023°42'1111.2
2014-Jul-15 17:33N 37°48' E 023°37'6 6.0
2014-Jul-15 16:33N 37°52' E 023°32'0 0.0
2014-Jul-15 15:33N 37°52' E 023°32'0 0.1
2014-Jul-15 14:33N 37°52' E 023°32'0 0.0
2014-Jul-15 13:33N 37°52' E 023°32'0 0.1
2014-Jul-15 12:33N 37°52' E 023°32'0 0.0
2014-Jul-15 11:33N 37°52' E 023°32'0 0.0
2014-Jul-15 10:34N 37°52' E 023°32'0 0.0
2014-Jul-15 09:34N 37°52' E 023°32'0 0.2
2014-Jul-15 08:34N 37°52' E 023°32'5 5.2
2014-Jul-15 07:34N 37°51' E 023°39'8 8.1
2014-Jul-15 06:34N 37°44' E 023°43'9 9.0
2014-Jul-15 05:33N 37°38' E 023°52'8 7.6
2014-Jul-15 04:28N 37°37' E 024°03'2010.6
2014-Jul-15 02:33N 37°48' E 024°24'1110.5
2014-Jul-15 01:33N 37°55' E 024°34'6011.2
2014-Jul-14 20:08N 38°49' E 025°08'711.7
2014-Jul-14 19:33N 38°55' E 025°12'2811.3
2014-Jul-14 17:07N 39°20' E 025°28'1710.9
2014-Jul-14 15:33N 39°35' E 025°37'1311.2
2014-Jul-14 14:21N 39°48' E 025°44'  

Dump ship's entire track history